sensor_id;sensor_type;location;lat;lon;timestamp;pressure;altitude;pressure_sealevel;temperature;humidity
23166;BME280;11751;42.700;24.170;2023-04-19T00:00:04;93464.13;;;9.49;nan
23166;BME280;11751;42.700;24.170;2023-04-19T00:02:32;93442.47;;;9.57;nan
23166;BME280;11751;42.700;24.170;2023-04-19T00:04:59;93463.28;;;9.71;nan
23166;BME280;11751;42.700;24.170;2023-04-19T00:07:24;93461.00;;;9.77;nan
23166;BME280;11751;42.700;24.170;2023-04-19T00:09:50;93452.41;;;9.82;nan
23166;BME280;11751;42.700;24.170;2023-04-19T00:12:15;93450.69;;;9.87;nan
23166;BME280;11751;42.700;24.170;2023-04-19T00:14:41;93461.69;;;9.85;nan
23166;BME280;11751;42.700;24.170;2023-04-19T00:17:06;93456.72;;;9.76;nan
23166;BME280;11751;42.700;24.170;2023-04-19T00:19:32;93456.09;;;9.85;nan
23166;BME280;11751;42.700;24.170;2023-04-19T00:21:57;93449.75;;;9.92;nan
23166;BME280;11751;42.700;24.170;2023-04-19T00:24:23;93442.84;;;9.93;nan
23166;BME280;11751;42.700;24.170;2023-04-19T00:26:48;93441.19;;;9.90;nan
23166;BME280;11751;42.700;24.170;2023-04-19T00:29:13;93444.75;;;9.83;nan
23166;BME280;11751;42.700;24.170;2023-04-19T00:31:39;93451.31;;;9.78;nan
23166;BME280;11751;42.700;24.170;2023-04-19T00:34:04;93444.19;;;9.84;nan
23166;BME280;11751;42.700;24.170;2023-04-19T00:36:30;93441.25;;;9.75;nan
23166;BME280;11751;42.700;24.170;2023-04-19T00:38:56;93438.97;;;9.88;nan
23166;BME280;11751;42.700;24.170;2023-04-19T00:41:21;93436.38;;;9.83;nan
23166;BME280;11751;42.700;24.170;2023-04-19T00:43:46;93429.72;;;9.71;nan
23166;BME280;11751;42.700;24.170;2023-04-19T00:46:13;93439.00;;;9.81;nan
23166;BME280;11751;42.700;24.170;2023-04-19T00:48:39;93439.31;;;9.85;nan
23166;BME280;11751;42.700;24.170;2023-04-19T00:51:04;93445.28;;;9.89;nan
23166;BME280;11751;42.700;24.170;2023-04-19T00:53:30;93438.97;;;9.88;nan
23166;BME280;11751;42.700;24.170;2023-04-19T00:55:56;93437.41;;;9.95;nan
23166;BME280;11751;42.700;24.170;2023-04-19T00:58:24;93436.66;;;10.02;nan
23166;BME280;11751;42.700;24.170;2023-04-19T01:00:49;93434.41;;;10.00;nan
23166;BME280;11751;42.700;24.170;2023-04-19T01:03:15;93423.28;;;9.93;nan
23166;BME280;11751;42.700;24.170;2023-04-19T01:05:41;93430.78;;;9.83;nan
23166;BME280;11751;42.700;24.170;2023-04-19T01:08:06;93417.69;;;9.93;nan
23166;BME280;11751;42.700;24.170;2023-04-19T01:10:32;93412.22;;;9.95;nan
23166;BME280;11751;42.700;24.170;2023-04-19T01:12:58;93419.03;;;9.84;nan
23166;BME280;11751;42.700;24.170;2023-04-19T01:15:23;93409.63;;;9.65;nan
23166;BME280;11751;42.700;24.170;2023-04-19T01:17:49;93406.75;;;9.48;nan
23166;BME280;11751;42.700;24.170;2023-04-19T01:20:15;93409.28;;;9.61;nan
23166;BME280;11751;42.700;24.170;2023-04-19T01:22:41;93400.00;;;9.58;nan
23166;BME280;11751;42.700;24.170;2023-04-19T01:25:06;93396.81;;;9.62;nan
23166;BME280;11751;42.700;24.170;2023-04-19T01:27:32;93392.16;;;9.57;nan
23166;BME280;11751;42.700;24.170;2023-04-19T01:29:58;93392.94;;;9.50;nan
23166;BME280;11751;42.700;24.170;2023-04-19T01:32:23;93395.94;;;9.52;nan
23166;BME280;11751;42.700;24.170;2023-04-19T01:34:51;93394.22;;;9.56;nan
23166;BME280;11751;42.700;24.170;2023-04-19T01:37:17;93392.09;;;9.32;nan
23166;BME280;11751;42.700;24.170;2023-04-19T01:39:42;93390.34;;;9.52;nan
23166;BME280;11751;42.700;24.170;2023-04-19T01:42:08;93383.66;;;9.47;nan
23166;BME280;11751;42.700;24.170;2023-04-19T01:44:33;93394.78;;;9.55;nan
23166;BME280;11751;42.700;24.170;2023-04-19T01:46:58;93385.44;;;9.60;nan
23166;BME280;11751;42.700;24.170;2023-04-19T01:49:24;93388.16;;;9.43;nan
23166;BME280;11751;42.700;24.170;2023-04-19T01:51:49;93395.13;;;9.59;nan
23166;BME280;11751;42.700;24.170;2023-04-19T01:54:15;93387.88;;;9.56;nan
23166;BME280;11751;42.700;24.170;2023-04-19T01:56:40;93383.22;;;9.58;nan
23166;BME280;11751;42.700;24.170;2023-04-19T01:59:06;93383.44;;;9.53;nan
23166;BME280;11751;42.700;24.170;2023-04-19T02:01:31;93390.38;;;9.44;nan
23166;BME280;11751;42.700;24.170;2023-04-19T02:03:56;93370.06;;;9.44;nan
23166;BME280;11751;42.700;24.170;2023-04-19T02:06:22;93379.50;;;9.56;nan
23166;BME280;11751;42.700;24.170;2023-04-19T02:08:47;93376.09;;;9.65;nan
23166;BME280;11751;42.700;24.170;2023-04-19T02:11:13;93380.81;;;9.55;nan
23166;BME280;11751;42.700;24.170;2023-04-19T02:13:39;93379.66;;;9.26;nan
23166;BME280;11751;42.700;24.170;2023-04-19T02:16:05;93381.81;;;9.42;nan
23166;BME280;11751;42.700;24.170;2023-04-19T02:18:31;93381.94;;;9.52;nan
23166;BME280;11751;42.700;24.170;2023-04-19T02:21:00;93373.22;;;9.48;nan
23166;BME280;11751;42.700;24.170;2023-04-19T02:23:25;93366.88;;;9.47;nan
23166;BME280;11751;42.700;24.170;2023-04-19T02:25:51;93368.81;;;9.37;nan
23166;BME280;11751;42.700;24.170;2023-04-19T02:28:16;93368.44;;;9.33;nan
23166;BME280;11751;42.700;24.170;2023-04-19T02:30:42;93360.63;;;9.32;nan
23166;BME280;11751;42.700;24.170;2023-04-19T02:33:07;93377.81;;;9.21;nan
23166;BME280;11751;42.700;24.170;2023-04-19T02:35:32;93375.25;;;9.08;nan
23166;BME280;11751;42.700;24.170;2023-04-19T02:38:02;93371.88;;;9.17;nan
23166;BME280;11751;42.700;24.170;2023-04-19T02:40:28;93371.13;;;9.17;nan
23166;BME280;11751;42.700;24.170;2023-04-19T02:42:53;93378.03;;;9.16;nan
23166;BME280;11751;42.700;24.170;2023-04-19T02:45:19;93360.16;;;9.19;nan
23166;BME280;11751;42.700;24.170;2023-04-19T02:47:44;93364.78;;;9.24;nan
23166;BME280;11751;42.700;24.170;2023-04-19T02:50:11;93367.44;;;9.14;nan
23166;BME280;11751;42.700;24.170;2023-04-19T02:52:37;93368.59;;;8.96;nan
23166;BME280;11751;42.700;24.170;2023-04-19T02:55:02;93369.50;;;9.06;nan
23166;BME280;11751;42.700;24.170;2023-04-19T02:57:29;93379.53;;;9.09;nan
23166;BME280;11751;42.700;24.170;2023-04-19T02:59:54;93371.16;;;9.09;nan
23166;BME280;11751;42.700;24.170;2023-04-19T03:02:20;93368.19;;;9.07;nan
23166;BME280;11751;42.700;24.170;2023-04-19T03:04:45;93368.03;;;9.05;nan
23166;BME280;11751;42.700;24.170;2023-04-19T03:07:11;93375.66;;;8.97;nan
23166;BME280;11751;42.700;24.170;2023-04-19T03:09:37;93370.34;;;8.84;nan
23166;BME280;11751;42.700;24.170;2023-04-19T03:12:03;93367.88;;;8.88;nan
23166;BME280;11751;42.700;24.170;2023-04-19T03:14:28;93373.88;;;8.77;nan
23166;BME280;11751;42.700;24.170;2023-04-19T03:16:53;93374.63;;;8.85;nan
23166;BME280;11751;42.700;24.170;2023-04-19T03:19:19;93372.00;;;8.87;nan
23166;BME280;11751;42.700;24.170;2023-04-19T03:21:44;93365.88;;;8.81;nan
23166;BME280;11751;42.700;24.170;2023-04-19T03:24:10;93366.78;;;8.91;nan
23166;BME280;11751;42.700;24.170;2023-04-19T03:26:36;93370.19;;;8.67;nan
23166;BME280;11751;42.700;24.170;2023-04-19T03:29:02;93369.44;;;8.74;nan
23166;BME280;11751;42.700;24.170;2023-04-19T03:31:27;93360.38;;;8.59;nan
23166;BME280;11751;42.700;24.170;2023-04-19T03:33:52;93378.22;;;8.63;nan
23166;BME280;11751;42.700;24.170;2023-04-19T03:36:18;93382.13;;;8.60;nan
23166;BME280;11751;42.700;24.170;2023-04-19T03:38:43;93384.75;;;8.51;nan
23166;BME280;11751;42.700;24.170;2023-04-19T03:41:21;93380.63;;;8.59;nan
23166;BME280;11751;42.700;24.170;2023-04-19T03:43:47;93380.28;;;8.55;nan
23166;BME280;11751;42.700;24.170;2023-04-19T03:46:13;93383.97;;;8.65;nan
23166;BME280;11751;42.700;24.170;2023-04-19T03:48:38;93377.63;;;8.65;nan
23166;BME280;11751;42.700;24.170;2023-04-19T03:51:04;93376.53;;;8.53;nan
23166;BME280;11751;42.700;24.170;2023-04-19T03:53:29;93368.72;;;8.59;nan
23166;BME280;11751;42.700;24.170;2023-04-19T03:55:55;93378.78;;;8.54;nan
23166;BME280;11751;42.700;24.170;2023-04-19T03:58:21;93381.59;;;8.54;nan
23166;BME280;11751;42.700;24.170;2023-04-19T04:00:46;93382.50;;;8.49;nan
23166;BME280;11751;42.700;24.170;2023-04-19T04:03:11;93380.63;;;8.59;nan
23166;BME280;11751;42.700;24.170;2023-04-19T04:05:37;93383.22;;;8.65;nan
23166;BME280;11751;42.700;24.170;2023-04-19T04:08:02;93376.91;;;8.64;nan
23166;BME280;11751;42.700;24.170;2023-04-19T04:10:28;93385.81;;;8.78;nan
23166;BME280;11751;42.700;24.170;2023-04-19T04:12:53;93384.69;;;8.73;nan
23166;BME280;11751;42.700;24.170;2023-04-19T04:15:18;93384.69;;;8.73;nan
23166;BME280;11751;42.700;24.170;2023-04-19T04:17:44;93388.97;;;8.74;nan
23166;BME280;11751;42.700;24.170;2023-04-19T04:20:10;93377.81;;;8.74;nan
23166;BME280;11751;42.700;24.170;2023-04-19T04:22:41;93382.06;;;8.83;nan
23166;BME280;11751;42.700;24.170;2023-04-19T04:25:08;93393.56;;;8.94;nan
23166;BME280;11751;42.700;24.170;2023-04-19T04:27:34;93382.19;;;9.00;nan
23166;BME280;11751;42.700;24.170;2023-04-19T04:30:00;93384.94;;;9.07;nan
23166;BME280;11751;42.700;24.170;2023-04-19T04:32:25;93381.56;;;9.16;nan
23166;BME280;11751;42.700;24.170;2023-04-19T04:34:51;93383.81;;;9.18;nan
23166;BME280;11751;42.700;24.170;2023-04-19T04:37:16;93389.41;;;9.10;nan
23166;BME280;11751;42.700;24.170;2023-04-19T04:39:42;93393.28;;;9.15;nan
23166;BME280;11751;42.700;24.170;2023-04-19T04:42:07;93394.97;;;9.18;nan
23166;BME280;11751;42.700;24.170;2023-04-19T04:44:36;93400.56;;;9.10;nan
23166;BME280;11751;42.700;24.170;2023-04-19T04:47:03;93394.28;;;9.02;nan
23166;BME280;11751;42.700;24.170;2023-04-19T04:49:29;93399.47;;;9.13;nan
23166;BME280;11751;42.700;24.170;2023-04-19T04:51:55;93395.31;;;9.22;nan
23166;BME280;11751;42.700;24.170;2023-04-19T04:54:20;93384.50;;;9.26;nan
23166;BME280;11751;42.700;24.170;2023-04-19T04:56:46;93386.53;;;9.25;nan
23166;BME280;11751;42.700;24.170;2023-04-19T04:59:11;93393.94;;;9.37;nan
23166;BME280;11751;42.700;24.170;2023-04-19T05:01:37;93390.59;;;9.39;nan
23166;BME280;11751;42.700;24.170;2023-04-19T05:04:02;93394.88;;;9.40;nan
23166;BME280;11751;42.700;24.170;2023-04-19T05:06:27;93391.91;;;9.31;nan
23166;BME280;11751;42.700;24.170;2023-04-19T05:08:53;93390.78;;;9.33;nan
23166;BME280;11751;42.700;24.170;2023-04-19T05:11:19;93389.56;;;9.51;nan
23166;BME280;11751;42.700;24.170;2023-04-19T05:13:46;93393.59;;;9.65;nan
23166;BME280;11751;42.700;24.170;2023-04-19T05:16:11;93393.22;;;9.69;nan
23166;BME280;11751;42.700;24.170;2023-04-19T05:18:37;93401.28;;;9.89;nan
23166;BME280;11751;42.700;24.170;2023-04-19T05:21:02;93405.31;;;10.03;nan
23166;BME280;11751;42.700;24.170;2023-04-19T05:23:28;93388.13;;;10.07;nan
23166;BME280;11751;42.700;24.170;2023-04-19T05:25:53;93395.44;;;10.26;nan
23166;BME280;11751;42.700;24.170;2023-04-19T05:28:18;93401.94;;;10.29;nan
23166;BME280;11751;42.700;24.170;2023-04-19T05:30:44;93402.22;;;10.40;nan
23166;BME280;11751;42.700;24.170;2023-04-19T05:33:10;93400.91;;;10.41;nan
23166;BME280;11751;42.700;24.170;2023-04-19T05:35:35;93394.44;;;10.56;nan
23166;BME280;11751;42.700;24.170;2023-04-19T05:38:01;93411.50;;;10.67;nan
23166;BME280;11751;42.700;24.170;2023-04-19T05:40:27;93407.66;;;10.80;nan
23166;BME280;11751;42.700;24.170;2023-04-19T05:42:53;93412.34;;;10.94;nan
23166;BME280;11751;42.700;24.170;2023-04-19T05:45:20;93424.63;;;10.99;nan
23166;BME280;11751;42.700;24.170;2023-04-19T05:47:46;93409.88;;;11.15;nan
23166;BME280;11751;42.700;24.170;2023-04-19T05:50:11;93402.78;;;11.14;nan
23166;BME280;11751;42.700;24.170;2023-04-19T05:52:39;93398.44;;;11.04;nan
23166;BME280;11751;42.700;24.170;2023-04-19T05:55:04;93409.66;;;11.04;nan
23166;BME280;11751;42.700;24.170;2023-04-19T05:57:30;93412.44;;;11.20;nan
23166;BME280;11751;42.700;24.170;2023-04-19T05:59:56;93411.72;;;11.20;nan
23166;BME280;11751;42.700;24.170;2023-04-19T06:02:21;93411.94;;;11.31;nan
23166;BME280;11751;42.700;24.170;2023-04-19T06:04:47;93396.88;;;11.27;nan
23166;BME280;11751;42.700;24.170;2023-04-19T06:07:12;93408.69;;;11.52;nan
23166;BME280;11751;42.700;24.170;2023-04-19T06:09:38;93408.38;;;11.48;nan
23166;BME280;11751;42.700;24.170;2023-04-19T06:12:03;93415.31;;;11.64;nan
23166;BME280;11751;42.700;24.170;2023-04-19T06:14:29;93422.50;;;11.84;nan
23166;BME280;11751;42.700;24.170;2023-04-19T06:16:55;93410.69;;;11.85;nan
23166;BME280;11751;42.700;24.170;2023-04-19T06:19:21;93411.09;;;11.98;nan
23166;BME280;11751;42.700;24.170;2023-04-19T06:21:46;93419.88;;;11.86;nan
23166;BME280;11751;42.700;24.170;2023-04-19T06:24:12;93425.25;;;12.00;nan
23166;BME280;11751;42.700;24.170;2023-04-19T06:26:37;93418.50;;;12.03;nan
23166;BME280;11751;42.700;24.170;2023-04-19T06:29:03;93422.97;;;12.16;nan
23166;BME280;11751;42.700;24.170;2023-04-19T06:31:28;93418.03;;;11.97;nan
23166;BME280;11751;42.700;24.170;2023-04-19T06:33:54;93417.34;;;12.06;nan
23166;BME280;11751;42.700;24.170;2023-04-19T06:36:19;93420.84;;;12.33;nan
23166;BME280;11751;42.700;24.170;2023-04-19T06:38:45;93416.88;;;12.36;nan
23166;BME280;11751;42.700;24.170;2023-04-19T06:41:11;93416.19;;;12.45;nan
23166;BME280;11751;42.700;24.170;2023-04-19T06:43:36;93415.63;;;12.20;nan
23166;BME280;11751;42.700;24.170;2023-04-19T06:46:03;93421.63;;;12.43;nan
23166;BME280;11751;42.700;24.170;2023-04-19T06:48:29;93420.66;;;12.58;nan
23166;BME280;11751;42.700;24.170;2023-04-19T06:50:55;93420.09;;;12.69;nan
23166;BME280;11751;42.700;24.170;2023-04-19T06:53:21;93412.78;;;12.92;nan
23166;BME280;11751;42.700;24.170;2023-04-19T06:55:47;93422.41;;;13.08;nan
23166;BME280;11751;42.700;24.170;2023-04-19T06:58:12;93411.81;;;13.35;nan
23166;BME280;11751;42.700;24.170;2023-04-19T07:00:37;93422.91;;;13.33;nan
23166;BME280;11751;42.700;24.170;2023-04-19T07:03:03;93416.69;;;13.44;nan
23166;BME280;11751;42.700;24.170;2023-04-19T07:05:29;93413.88;;;13.44;nan
23166;BME280;11751;42.700;24.170;2023-04-19T07:07:55;93410.31;;;13.53;nan
23166;BME280;11751;42.700;24.170;2023-04-19T07:10:21;93411.78;;;13.72;nan
23166;BME280;11751;42.700;24.170;2023-04-19T07:12:46;93418.91;;;13.55;nan
23166;BME280;11751;42.700;24.170;2023-04-19T07:15:12;93417.13;;;13.68;nan
23166;BME280;11751;42.700;24.170;2023-04-19T07:17:37;93410.13;;;13.98;nan
23166;BME280;11751;42.700;24.170;2023-04-19T07:20:04;93407.00;;;14.03;nan
23166;BME280;11751;42.700;24.170;2023-04-19T07:22:31;93417.03;;;14.06;nan
23166;BME280;11751;42.700;24.170;2023-04-19T07:24:56;93410.06;;;14.26;nan
23166;BME280;11751;42.700;24.170;2023-04-19T07:27:22;93414.22;;;14.25;nan
23166;BME280;11751;42.700;24.170;2023-04-19T07:29:48;93410.22;;;14.28;nan
23166;BME280;11751;42.700;24.170;2023-04-19T07:32:13;93414.72;;;14.52;nan
23166;BME280;11751;42.700;24.170;2023-04-19T07:34:39;93420.06;;;14.78;nan
23166;BME280;11751;42.700;24.170;2023-04-19T07:37:06;93407.72;;;15.14;nan
23166;BME280;11751;42.700;24.170;2023-04-19T07:39:32;93421.09;;;15.13;nan
23166;BME280;11751;42.700;24.170;2023-04-19T07:41:57;93414.56;;;15.11;nan
23166;BME280;11751;42.700;24.170;2023-04-19T07:44:23;93418.88;;;15.33;nan
23166;BME280;11751;42.700;24.170;2023-04-19T07:46:49;93418.22;;;15.43;nan
23166;BME280;11751;42.700;24.170;2023-04-19T07:49:15;93427.09;;;15.49;nan
23166;BME280;11751;42.700;24.170;2023-04-19T07:51:40;93430.34;;;15.67;nan
23166;BME280;11751;42.700;24.170;2023-04-19T07:54:06;93418.88;;;15.74;nan
23166;BME280;11751;42.700;24.170;2023-04-19T07:56:31;93416.34;;;15.90;nan
23166;BME280;11751;42.700;24.170;2023-04-19T07:58:58;93417.75;;;16.00;nan
23166;BME280;11751;42.700;24.170;2023-04-19T08:01:24;93408.63;;;15.90;nan
23166;BME280;11751;42.700;24.170;2023-04-19T08:03:49;93416.59;;;15.61;nan
23166;BME280;11751;42.700;24.170;2023-04-19T08:06:15;93412.19;;;15.58;nan
23166;BME280;11751;42.700;24.170;2023-04-19T08:08:41;93419.13;;;15.78;nan
23166;BME280;11751;42.700;24.170;2023-04-19T08:11:07;93409.00;;;15.96;nan
23166;BME280;11751;42.700;24.170;2023-04-19T08:13:32;93416.88;;;15.98;nan
23166;BME280;11751;42.700;24.170;2023-04-19T08:15:58;93407.19;;;15.68;nan
23166;BME280;11751;42.700;24.170;2023-04-19T08:18:23;93424.81;;;15.37;nan
23166;BME280;11751;42.700;24.170;2023-04-19T08:20:49;93414.91;;;15.47;nan
23166;BME280;11751;42.700;24.170;2023-04-19T08:23:14;93419.94;;;15.90;nan
23166;BME280;11751;42.700;24.170;2023-04-19T08:25:40;93419.28;;;16.24;nan
23166;BME280;11751;42.700;24.170;2023-04-19T08:28:05;93401.06;;;16.16;nan
23166;BME280;11751;42.700;24.170;2023-04-19T08:30:31;93410.69;;;16.22;nan
23166;BME280;11751;42.700;24.170;2023-04-19T08:32:57;93406.63;;;16.14;nan
23166;BME280;11751;42.700;24.170;2023-04-19T08:35:22;93402.34;;;16.24;nan
23166;BME280;11751;42.700;24.170;2023-04-19T08:37:49;93402.03;;;15.97;nan
23166;BME280;11751;42.700;24.170;2023-04-19T08:40:15;93403.63;;;16.32;nan
23166;BME280;11751;42.700;24.170;2023-04-19T08:42:44;93399.47;;;16.56;nan
23166;BME280;11751;42.700;24.170;2023-04-19T08:45:09;93401.94;;;16.85;nan
23166;BME280;11751;42.700;24.170;2023-04-19T08:47:38;93400.16;;;16.34;nan
23166;BME280;11751;42.700;24.170;2023-04-19T08:50:05;93393.84;;;16.24;nan
23166;BME280;11751;42.700;24.170;2023-04-19T08:52:35;93389.13;;;16.38;nan
23166;BME280;11751;42.700;24.170;2023-04-19T08:55:06;93387.84;;;15.53;nan
23166;BME280;11751;42.700;24.170;2023-04-19T08:57:33;93391.25;;;16.05;nan
23166;BME280;11751;42.700;24.170;2023-04-19T09:00:02;93394.53;;;16.34;nan
23166;BME280;11751;42.700;24.170;2023-04-19T09:02:44;93389.28;;;16.63;nan
23166;BME280;11751;42.700;24.170;2023-04-19T09:05:12;93394.06;;;16.72;nan
23166;BME280;11751;42.700;24.170;2023-04-19T09:07:38;93386.06;;;16.68;nan
23166;BME280;11751;42.700;24.170;2023-04-19T09:10:05;93395.19;;;16.23;nan
23166;BME280;11751;42.700;24.170;2023-04-19T09:12:35;93398.97;;;16.37;nan
23166;BME280;11751;42.700;24.170;2023-04-19T09:15:03;93397.28;;;16.78;nan
23166;BME280;11751;42.700;24.170;2023-04-19T09:17:29;93402.16;;;17.34;nan
23166;BME280;11751;42.700;24.170;2023-04-19T09:19:55;93393.22;;;17.63;nan
23166;BME280;11751;42.700;24.170;2023-04-19T09:22:21;93396.25;;;17.78;nan
23166;BME280;11751;42.700;24.170;2023-04-19T09:24:47;93399.56;;;18.11;nan
23166;BME280;11751;42.700;24.170;2023-04-19T09:27:15;93391.84;;;18.00;nan
23166;BME280;11751;42.700;24.170;2023-04-19T09:29:53;93396.16;;;17.76;nan
23166;BME280;11751;42.700;24.170;2023-04-19T09:32:20;93382.19;;;17.55;nan
23166;BME280;11751;42.700;24.170;2023-04-19T09:34:56;93379.34;;;17.55;nan
23166;BME280;11751;42.700;24.170;2023-04-19T09:37:22;93377.94;;;17.31;nan
23166;BME280;11751;42.700;24.170;2023-04-19T09:39:48;93385.31;;;17.13;nan
23166;BME280;11751;42.700;24.170;2023-04-19T09:42:14;93394.06;;;17.17;nan
23166;BME280;11751;42.700;24.170;2023-04-19T09:44:39;93390.88;;;17.00;nan
23166;BME280;11751;42.700;24.170;2023-04-19T09:47:21;93394.91;;;17.31;nan
23166;BME280;11751;42.700;24.170;2023-04-19T09:50:03;93401.19;;;16.84;nan
23166;BME280;11751;42.700;24.170;2023-04-19T09:52:28;93398.03;;;16.23;nan
23166;BME280;11751;42.700;24.170;2023-04-19T09:54:54;93387.78;;;15.95;nan
23166;BME280;11751;42.700;24.170;2023-04-19T09:57:22;93400.13;;;15.58;nan
23166;BME280;11751;42.700;24.170;2023-04-19T09:59:47;93400.69;;;15.66;nan
23166;BME280;11751;42.700;24.170;2023-04-19T10:02:13;93395.16;;;16.00;nan
23166;BME280;11751;42.700;24.170;2023-04-19T10:04:40;93388.03;;;15.99;nan
23166;BME280;11751;42.700;24.170;2023-04-19T10:07:07;93388.88;;;15.90;nan
23166;BME280;11751;42.700;24.170;2023-04-19T10:09:34;93389.66;;;15.81;nan
23166;BME280;11751;42.700;24.170;2023-04-19T10:12:00;93401.25;;;15.85;nan
23166;BME280;11751;42.700;24.170;2023-04-19T10:14:29;93392.38;;;15.26;nan
23166;BME280;11751;42.700;24.170;2023-04-19T10:17:00;93395.31;;;15.28;nan
23166;BME280;11751;42.700;24.170;2023-04-19T10:19:27;93396.56;;;15.78;nan
23166;BME280;11751;42.700;24.170;2023-04-19T10:21:53;93391.94;;;15.94;nan
23166;BME280;11751;42.700;24.170;2023-04-19T10:24:20;93392.00;;;16.17;nan
23166;BME280;11751;42.700;24.170;2023-04-19T10:32:15;93380.31;;;16.55;nan
23166;BME280;11751;42.700;24.170;2023-04-19T10:34:40;93383.63;;;16.51;nan
23166;BME280;11751;42.700;24.170;2023-04-19T10:37:09;93377.84;;;16.38;nan
23166;BME280;11751;42.700;24.170;2023-04-19T10:39:39;93375.38;;;16.44;nan
23166;BME280;11751;42.700;24.170;2023-04-19T10:42:05;93378.06;;;16.42;nan
23166;BME280;11751;42.700;24.170;2023-04-19T10:44:31;93389.38;;;16.42;nan
23166;BME280;11751;42.700;24.170;2023-04-19T10:46:57;93387.88;;;16.41;nan
23166;BME280;11751;42.700;24.170;2023-04-19T10:49:23;93379.06;;;16.46;nan
23166;BME280;11751;42.700;24.170;2023-04-19T10:51:49;93387.13;;;16.29;nan
23166;BME280;11751;42.700;24.170;2023-04-19T10:54:29;93376.28;;;16.14;nan
23166;BME280;11751;42.700;24.170;2023-04-19T10:57:02;93378.44;;;16.36;nan
23166;BME280;11751;42.700;24.170;2023-04-19T10:59:33;93374.09;;;16.24;nan
23166;BME280;11751;42.700;24.170;2023-04-19T11:02:01;93371.44;;;16.72;nan
23166;BME280;11751;42.700;24.170;2023-04-19T11:07:05;93377.84;;;16.84;nan
23166;BME280;11751;42.700;24.170;2023-04-19T11:09:35;93371.59;;;16.62;nan
23166;BME280;11751;42.700;24.170;2023-04-19T11:12:13;93372.69;;;16.69;nan
23166;BME280;11751;42.700;24.170;2023-04-19T11:14:39;93370.84;;;16.85;nan
23166;BME280;11751;42.700;24.170;2023-04-19T11:17:22;93364.06;;;16.90;nan
23166;BME280;11751;42.700;24.170;2023-04-19T11:22:17;93360.38;;;16.64;nan
23166;BME280;11751;42.700;24.170;2023-04-19T11:24:45;93346.66;;;16.59;nan
23166;BME280;11751;42.700;24.170;2023-04-19T11:27:12;93363.84;;;16.51;nan
23166;BME280;11751;42.700;24.170;2023-04-19T11:29:37;93350.56;;;16.42;nan
23166;BME280;11751;42.700;24.170;2023-04-19T11:32:03;93361.38;;;16.69;nan
23166;BME280;11751;42.700;24.170;2023-04-19T11:34:29;93353.53;;;16.79;nan
23166;BME280;11751;42.700;24.170;2023-04-19T11:36:54;93373.53;;;16.83;nan
23166;BME280;11751;42.700;24.170;2023-04-19T11:39:19;93362.22;;;16.37;nan
23166;BME280;11751;42.700;24.170;2023-04-19T11:41:46;93359.88;;;16.33;nan
23166;BME280;11751;42.700;24.170;2023-04-19T11:44:18;93357.69;;;16.78;nan
23166;BME280;11751;42.700;24.170;2023-04-19T11:47:04;93373.53;;;16.48;nan
23166;BME280;11751;42.700;24.170;2023-04-19T11:49:32;93365.06;;;16.83;nan
23166;BME280;11751;42.700;24.170;2023-04-19T11:52:04;93367.16;;;16.71;nan
23166;BME280;11751;42.700;24.170;2023-04-19T11:54:29;93372.19;;;16.72;nan
23166;BME280;11751;42.700;24.170;2023-04-19T11:57:07;93366.03;;;16.64;nan
23166;BME280;11751;42.700;24.170;2023-04-19T11:59:34;93354.50;;;16.60;nan
23166;BME280;11751;42.700;24.170;2023-04-19T12:02:07;93364.31;;;16.59;nan
23166;BME280;11751;42.700;24.170;2023-04-19T12:04:33;93364.34;;;16.16;nan
23166;BME280;11751;42.700;24.170;2023-04-19T12:07:00;93370.28;;;16.20;nan
23166;BME280;11751;42.700;24.170;2023-04-19T12:09:26;93360.88;;;16.61;nan
23166;BME280;11751;42.700;24.170;2023-04-19T12:11:52;93335.81;;;16.78;nan
23166;BME280;11751;42.700;24.170;2023-04-19T12:14:21;93355.94;;;17.07;nan
23166;BME280;11751;42.700;24.170;2023-04-19T12:17:10;93349.00;;;17.21;nan
23166;BME280;11751;42.700;24.170;2023-04-19T12:19:43;93348.03;;;17.40;nan
23166;BME280;11751;42.700;24.170;2023-04-19T12:24:37;93350.91;;;16.60;nan
23166;BME280;11751;42.700;24.170;2023-04-19T12:27:03;93350.91;;;16.60;nan
23166;BME280;11751;42.700;24.170;2023-04-19T12:29:29;93353.50;;;16.33;nan
23166;BME280;11751;42.700;24.170;2023-04-19T12:31:54;93349.78;;;16.19;nan
23166;BME280;11751;42.700;24.170;2023-04-19T12:34:20;93339.75;;;16.39;nan
23166;BME280;11751;42.700;24.170;2023-04-19T12:36:45;93337.66;;;16.74;nan
23166;BME280;11751;42.700;24.170;2023-04-19T12:39:12;93339.97;;;16.89;nan
23166;BME280;11751;42.700;24.170;2023-04-19T12:41:37;93338.84;;;16.25;nan
23166;BME280;11751;42.700;24.170;2023-04-19T12:44:03;93323.09;;;15.99;nan
23166;BME280;11751;42.700;24.170;2023-04-19T12:46:28;93333.72;;;16.33;nan
23166;BME280;11751;42.700;24.170;2023-04-19T12:48:53;93334.63;;;16.03;nan
23166;BME280;11751;42.700;24.170;2023-04-19T12:51:19;93327.19;;;16.42;nan
23166;BME280;11751;42.700;24.170;2023-04-19T12:53:48;93329.16;;;16.51;nan
23166;BME280;11751;42.700;24.170;2023-04-19T12:56:14;93319.13;;;16.48;nan
23166;BME280;11751;42.700;24.170;2023-04-19T12:58:40;93317.13;;;16.50;nan
23166;BME280;11751;42.700;24.170;2023-04-19T13:01:06;93312.72;;;16.36;nan
23166;BME280;11751;42.700;24.170;2023-04-19T13:03:31;93323.97;;;16.13;nan
23166;BME280;11751;42.700;24.170;2023-04-19T13:06:03;93311.66;;;15.86;nan
23166;BME280;11751;42.700;24.170;2023-04-19T13:08:29;93305.78;;;16.16;nan
23166;BME280;11751;42.700;24.170;2023-04-19T13:10:54;93316.88;;;16.24;nan
23166;BME280;11751;42.700;24.170;2023-04-19T13:13:20;93314.44;;;16.41;nan
23166;BME280;11751;42.700;24.170;2023-04-19T13:15:45;93306.44;;;16.83;nan
23166;BME280;11751;42.700;24.170;2023-04-19T13:18:11;93315.31;;;17.25;nan
23166;BME280;11751;42.700;24.170;2023-04-19T13:20:36;93306.88;;;17.50;nan
23166;BME280;11751;42.700;24.170;2023-04-19T13:23:02;93305.41;;;17.49;nan